sensor_id;sensor_type;location;lat;lon;timestamp;pressure;altitude;pressure_sealevel;temperature;humidity
71964;BME280;59834;52.124;5.422;2023-04-15T00:00:59;100937.69;;;7.47;65.88
71964;BME280;59834;52.124;5.422;2023-04-15T00:03:26;100941.00;;;7.51;65.84
71964;BME280;59834;52.124;5.422;2023-04-15T00:05:54;100942.06;;;7.47;66.17
71964;BME280;59834;52.124;5.422;2023-04-15T00:08:20;100943.84;;;7.46;66.22
71964;BME280;59834;52.124;5.422;2023-04-15T00:10:49;100943.84;;;7.46;65.98
71964;BME280;59834;52.124;5.422;2023-04-15T00:13:16;100943.00;;;7.46;65.76
71964;BME280;59834;52.124;5.422;2023-04-15T00:15:43;100943.94;;;7.45;66.28
71964;BME280;59834;52.124;5.422;2023-04-15T00:18:09;100944.00;;;7.43;66.16
71964;BME280;59834;52.124;5.422;2023-04-15T00:20:36;100946.00;;;7.38;66.55
71964;BME280;59834;52.124;5.422;2023-04-15T00:23:03;100937.41;;;7.36;66.66
71964;BME280;59834;52.124;5.422;2023-04-15T00:25:30;100938.22;;;7.37;66.94
71964;BME280;59834;52.124;5.422;2023-04-15T00:27:56;100944.28;;;7.37;66.99
71964;BME280;59834;52.124;5.422;2023-04-15T00:30:23;100934.56;;;7.41;66.86
71964;BME280;59834;52.124;5.422;2023-04-15T00:32:51;100940.63;;;7.41;66.91
71964;BME280;59834;52.124;5.422;2023-04-15T00:35:18;100943.25;;;7.41;67.01
71964;BME280;59834;52.124;5.422;2023-04-15T00:37:44;100942.31;;;7.42;67.24
71964;BME280;59834;52.124;5.422;2023-04-15T00:40:12;100936.41;;;7.39;67.34
71964;BME280;59834;52.124;5.422;2023-04-15T00:42:39;100944.28;;;7.37;67.77
71964;BME280;59834;52.124;5.422;2023-04-15T00:45:06;100944.41;;;7.34;67.49
71964;BME280;59834;52.124;5.422;2023-04-15T00:47:34;100942.88;;;7.30;67.88
71964;BME280;59834;52.124;5.422;2023-04-15T00:50:02;100949.09;;;7.27;67.53
71964;BME280;59834;52.124;5.422;2023-04-15T00:52:29;100955.16;;;7.28;67.60
71964;BME280;59834;52.124;5.422;2023-04-15T00:54:56;100951.13;;;7.21;67.48
71964;BME280;59834;52.124;5.422;2023-04-15T00:57:22;100953.13;;;7.16;68.13
71964;BME280;59834;52.124;5.422;2023-04-15T00:59:50;100958.56;;;7.11;68.27
71964;BME280;59834;52.124;5.422;2023-04-15T01:02:18;100955.59;;;7.00;68.82
71964;BME280;59834;52.124;5.422;2023-04-15T01:04:45;100959.34;;;6.94;69.07
71964;BME280;59834;52.124;5.422;2023-04-15T01:07:12;100955.88;;;6.94;69.34
71964;BME280;59834;52.124;5.422;2023-04-15T01:09:39;100956.25;;;6.86;69.78
71964;BME280;59834;52.124;5.422;2023-04-15T01:12:06;100951.97;;;6.85;69.57
71964;BME280;59834;52.124;5.422;2023-04-15T01:14:33;100949.72;;;6.77;69.76
71964;BME280;59834;52.124;5.422;2023-04-15T01:17:00;100952.47;;;6.74;70.11
71964;BME280;59834;52.124;5.422;2023-04-15T01:19:27;100958.56;;;6.73;70.46
71964;BME280;59834;52.124;5.422;2023-04-15T01:21:54;100955.19;;;6.71;69.89
71964;BME280;59834;52.124;5.422;2023-04-15T01:24:21;100955.25;;;6.70;70.41
71964;BME280;59834;52.124;5.422;2023-04-15T01:26:49;100958.00;;;6.67;70.89
71964;BME280;59834;52.124;5.422;2023-04-15T01:29:16;100951.25;;;6.63;71.07
71964;BME280;59834;52.124;5.422;2023-04-15T01:31:54;100950.47;;;6.60;71.05
71964;BME280;59834;52.124;5.422;2023-04-15T01:34:21;100954.69;;;6.63;71.48
71964;BME280;59834;52.124;5.422;2023-04-15T01:36:48;100955.66;;;6.60;71.66
71964;BME280;59834;52.124;5.422;2023-04-15T01:39:15;100951.19;;;6.64;71.50
71964;BME280;59834;52.124;5.422;2023-04-15T01:41:41;100961.50;;;6.66;71.79
71964;BME280;59834;52.124;5.422;2023-04-15T01:44:08;100953.00;;;6.62;71.49
71964;BME280;59834;52.124;5.422;2023-04-15T01:46:35;100956.59;;;6.59;71.54
71964;BME280;59834;52.124;5.422;2023-04-15T01:49:05;100961.03;;;6.57;72.16
71964;BME280;59834;52.124;5.422;2023-04-15T01:51:31;100955.97;;;6.54;72.38
71964;BME280;59834;52.124;5.422;2023-04-15T01:53:58;100957.72;;;6.54;72.33
71964;BME280;59834;52.124;5.422;2023-04-15T01:56:25;100949.97;;;6.52;72.59
71964;BME280;59834;52.124;5.422;2023-04-15T01:58:52;100956.97;;;6.50;72.32
71964;BME280;59834;52.124;5.422;2023-04-15T02:01:19;100955.38;;;6.48;73.01
71964;BME280;59834;52.124;5.422;2023-04-15T02:03:47;100955.19;;;6.52;72.90
71964;BME280;59834;52.124;5.422;2023-04-15T02:06:14;100954.13;;;6.56;73.19
71964;BME280;59834;52.124;5.422;2023-04-15T02:08:41;100955.81;;;6.57;72.62
71964;BME280;59834;52.124;5.422;2023-04-15T02:11:07;100963.63;;;6.57;73.11
71964;BME280;59834;52.124;5.422;2023-04-15T02:13:34;100958.44;;;6.57;72.94
71964;BME280;59834;52.124;5.422;2023-04-15T02:16:02;100963.63;;;6.57;72.47
71964;BME280;59834;52.124;5.422;2023-04-15T02:18:28;100963.06;;;6.51;73.04
71964;BME280;59834;52.124;5.422;2023-04-15T02:20:55;100961.47;;;6.47;74.21
71964;BME280;59834;52.124;5.422;2023-04-15T02:23:23;100970.28;;;6.44;73.72
71964;BME280;59834;52.124;5.422;2023-04-15T02:25:49;100973.91;;;6.40;74.04
71964;BME280;59834;52.124;5.422;2023-04-15T02:28:20;100978.59;;;6.32;74.49
71964;BME280;59834;52.124;5.422;2023-04-15T02:30:48;100980.38;;;6.31;74.62
71964;BME280;59834;52.124;5.422;2023-04-15T02:33:18;100981.47;;;6.26;74.52
71964;BME280;59834;52.124;5.422;2023-04-15T02:35:44;100980.88;;;6.19;75.64
71964;BME280;59834;52.124;5.422;2023-04-15T02:38:11;100982.78;;;6.16;75.98
71964;BME280;59834;52.124;5.422;2023-04-15T02:40:37;100990.69;;;6.12;75.82
71964;BME280;59834;52.124;5.422;2023-04-15T02:43:04;100996.75;;;6.13;76.21
71964;BME280;59834;52.124;5.422;2023-04-15T02:45:32;101002.03;;;6.11;76.46
71964;BME280;59834;52.124;5.422;2023-04-15T02:47:58;100995.06;;;6.12;76.03
71964;BME280;59834;52.124;5.422;2023-04-15T02:50:28;100998.63;;;6.09;76.94
71964;BME280;59834;52.124;5.422;2023-04-15T02:52:56;100997.19;;;6.02;76.62
71964;BME280;59834;52.124;5.422;2023-04-15T02:55:23;100999.16;;;5.97;77.53
71964;BME280;59834;52.124;5.422;2023-04-15T02:57:49;101000.03;;;5.96;77.05
71964;BME280;59834;52.124;5.422;2023-04-15T03:00:16;101007.97;;;5.93;77.25
71964;BME280;59834;52.124;5.422;2023-04-15T03:02:44;101013.25;;;5.90;77.72
71964;BME280;59834;52.124;5.422;2023-04-15T03:05:13;101007.97;;;5.93;78.54
71964;BME280;59834;52.124;5.422;2023-04-15T03:07:39;101009.78;;;5.91;78.26
71964;BME280;59834;52.124;5.422;2023-04-15T03:10:07;101007.97;;;5.93;78.65
71964;BME280;59834;52.124;5.422;2023-04-15T03:12:33;101013.97;;;5.95;78.60
71964;BME280;59834;52.124;5.422;2023-04-15T03:15:00;101011.22;;;5.98;77.65
71964;BME280;59834;52.124;5.422;2023-04-15T03:17:27;101017.16;;;6.02;78.13
71964;BME280;59834;52.124;5.422;2023-04-15T03:19:53;101012.78;;;6.02;78.15
71964;BME280;59834;52.124;5.422;2023-04-15T03:22:21;101020.78;;;5.98;78.12
71964;BME280;59834;52.124;5.422;2023-04-15T03:24:47;101019.16;;;5.95;78.30
71964;BME280;59834;52.124;5.422;2023-04-15T03:27:14;101012.38;;;5.91;78.87
71964;BME280;59834;52.124;5.422;2023-04-15T03:29:40;101015.94;;;5.88;79.24
71964;BME280;59834;52.124;5.422;2023-04-15T03:32:07;101016.78;;;5.89;78.75
71964;BME280;59834;52.124;5.422;2023-04-15T03:34:33;101021.13;;;5.88;79.44
71964;BME280;59834;52.124;5.422;2023-04-15T03:36:59;101021.31;;;5.84;79.56
71964;BME280;59834;52.124;5.422;2023-04-15T03:39:26;101025.59;;;5.85;79.89
71964;BME280;59834;52.124;5.422;2023-04-15T03:41:52;101018.00;;;5.80;79.89
71964;BME280;59834;52.124;5.422;2023-04-15T03:44:19;101030.44;;;5.72;80.30
71964;BME280;59834;52.124;5.422;2023-04-15T03:46:46;101037.72;;;5.64;81.06
71964;BME280;59834;52.124;5.422;2023-04-15T03:49:12;101038.06;;;5.55;81.41
71964;BME280;59834;52.124;5.422;2023-04-15T03:51:39;101045.13;;;5.51;81.60
71964;BME280;59834;52.124;5.422;2023-04-15T03:54:05;101044.41;;;5.48;81.93
71964;BME280;59834;52.124;5.422;2023-04-15T03:56:32;101049.63;;;5.46;81.98
71964;BME280;59834;52.124;5.422;2023-04-15T03:58:58;101049.63;;;5.46;82.22
71964;BME280;59834;52.124;5.422;2023-04-15T04:01:25;101052.34;;;5.43;82.33
71964;BME280;59834;52.124;5.422;2023-04-15T04:03:52;101057.72;;;5.38;82.23
71964;BME280;59834;52.124;5.422;2023-04-15T04:06:19;101051.81;;;5.35;82.95
71964;BME280;59834;52.124;5.422;2023-04-15T04:08:46;101061.47;;;5.31;82.72
71964;BME280;59834;52.124;5.422;2023-04-15T04:11:12;101061.59;;;5.28;83.19
71964;BME280;59834;52.124;5.422;2023-04-15T04:13:39;101073.66;;;5.29;83.53
71964;BME280;59834;52.124;5.422;2023-04-15T04:16:05;101065.84;;;5.29;83.95
71964;BME280;59834;52.124;5.422;2023-04-15T04:18:32;101069.56;;;5.24;83.62
71964;BME280;59834;52.124;5.422;2023-04-15T04:20:59;101066.16;;;5.22;83.60
71964;BME280;59834;52.124;5.422;2023-04-15T04:23:26;101073.28;;;5.16;84.17
71964;BME280;59834;52.124;5.422;2023-04-15T04:25:53;101082.06;;;5.12;84.41
71964;BME280;59834;52.124;5.422;2023-04-15T04:28:19;101079.66;;;5.08;84.33
71964;BME280;59834;52.124;5.422;2023-04-15T04:30:46;101087.66;;;5.02;84.51
71964;BME280;59834;52.124;5.422;2023-04-15T04:33:12;101087.72;;;5.00;84.57
71964;BME280;59834;52.124;5.422;2023-04-15T04:35:38;101098.94;;;5.01;84.70
71964;BME280;59834;52.124;5.422;2023-04-15T04:38:05;101096.28;;;5.02;85.19
71964;BME280;59834;52.124;5.422;2023-04-15T04:40:32;101098.00;;;5.03;85.23
71964;BME280;59834;52.124;5.422;2023-04-15T04:42:58;101096.28;;;5.02;85.33
71964;BME280;59834;52.124;5.422;2023-04-15T04:45:25;101113.81;;;4.95;85.14
71964;BME280;59834;52.124;5.422;2023-04-15T04:47:52;101105.28;;;4.92;85.44
71964;BME280;59834;52.124;5.422;2023-04-15T04:50:19;101125.28;;;4.90;85.92
71964;BME280;59834;52.124;5.422;2023-04-15T04:52:45;101130.47;;;4.90;85.85
71964;BME280;59834;52.124;5.422;2023-04-15T04:55:12;101131.41;;;4.87;86.04
71964;BME280;59834;52.124;5.422;2023-04-15T04:57:38;101134.94;;;4.85;86.12
71964;BME280;59834;52.124;5.422;2023-04-15T05:00:06;101135.84;;;4.84;86.47
71964;BME280;59834;52.124;5.422;2023-04-15T05:02:34;101140.22;;;4.82;86.67
71964;BME280;59834;52.124;5.422;2023-04-15T05:05:01;101141.91;;;4.83;86.96
71964;BME280;59834;52.124;5.422;2023-04-15T05:07:27;101148.72;;;4.87;86.96
71964;BME280;59834;52.124;5.422;2023-04-15T05:09:54;101151.97;;;4.92;86.73
71964;BME280;59834;52.124;5.422;2023-04-15T05:12:21;101155.28;;;4.97;87.02
71964;BME280;59834;52.124;5.422;2023-04-15T05:14:47;101155.16;;;5.00;87.04
71964;BME280;59834;52.124;5.422;2023-04-15T05:17:14;101154.94;;;5.06;87.08
71964;BME280;59834;52.124;5.422;2023-04-15T05:19:41;101167.78;;;5.09;87.08
71964;BME280;59834;52.124;5.422;2023-04-15T05:22:07;101171.09;;;5.14;87.31
71964;BME280;59834;52.124;5.422;2023-04-15T05:24:34;101163.13;;;5.19;86.49
71964;BME280;59834;52.124;5.422;2023-04-15T05:27:01;101166.34;;;5.26;86.40
71964;BME280;59834;52.124;5.422;2023-04-15T05:29:28;101168.72;;;5.32;86.74
71964;BME280;59834;52.124;5.422;2023-04-15T05:31:55;101177.88;;;5.42;86.06
71964;BME280;59834;52.124;5.422;2023-04-15T05:34:22;101176.59;;;5.54;86.28
71964;BME280;59834;52.124;5.422;2023-04-15T05:36:48;101183.75;;;6.16;85.93
71964;BME280;59834;52.124;5.422;2023-04-15T05:39:15;101184.16;;;6.90;83.04
71964;BME280;59834;52.124;5.422;2023-04-15T05:41:41;101188.47;;;7.12;81.17
71964;BME280;59834;52.124;5.422;2023-04-15T05:44:08;101189.50;;;7.28;80.71
71964;BME280;59834;52.124;5.422;2023-04-15T05:46:34;101190.19;;;7.31;79.99
71964;BME280;59834;52.124;5.422;2023-04-15T05:49:01;101200.69;;;7.09;80.02
71964;BME280;59834;52.124;5.422;2023-04-15T05:51:28;101199.16;;;6.85;81.01
71964;BME280;59834;52.124;5.422;2023-04-15T05:53:55;101205.69;;;6.73;80.78
71964;BME280;59834;52.124;5.422;2023-04-15T05:56:21;101215.34;;;6.49;81.49
71964;BME280;59834;52.124;5.422;2023-04-15T05:58:48;101221.19;;;6.34;82.52
71964;BME280;59834;52.124;5.422;2023-04-15T06:01:17;101217.25;;;6.24;83.60
71964;BME280;59834;52.124;5.422;2023-04-15T06:03:43;101214.78;;;6.21;83.38
71964;BME280;59834;52.124;5.422;2023-04-15T06:06:10;101225.16;;;6.21;83.91
71964;BME280;59834;52.124;5.422;2023-04-15T06:08:37;101227.94;;;6.16;83.98
71964;BME280;59834;52.124;5.422;2023-04-15T06:11:03;101238.03;;;6.24;84.66
71964;BME280;59834;52.124;5.422;2023-04-15T06:13:31;101238.56;;;6.32;84.90
71964;BME280;59834;52.124;5.422;2023-04-15T06:15:57;101240.59;;;6.47;84.59
71964;BME280;59834;52.124;5.422;2023-04-15T06:18:25;101242.03;;;6.54;84.50
71964;BME280;59834;52.124;5.422;2023-04-15T06:20:51;101244.41;;;6.81;84.46
71964;BME280;59834;52.124;5.422;2023-04-15T06:23:18;101244.34;;;7.23;83.45
71964;BME280;59834;52.124;5.422;2023-04-15T06:25:45;101253.41;;;7.54;82.33
71964;BME280;59834;52.124;5.422;2023-04-15T06:28:11;101255.28;;;7.71;80.59
71964;BME280;59834;52.124;5.422;2023-04-15T06:30:38;101258.47;;;7.96;80.68
71964;BME280;59834;52.124;5.422;2023-04-15T06:33:05;101258.53;;;8.33;79.07
71964;BME280;59834;52.124;5.422;2023-04-15T06:35:32;101257.06;;;8.46;78.22
71964;BME280;59834;52.124;5.422;2023-04-15T06:37:59;101265.53;;;8.68;77.86
71964;BME280;59834;52.124;5.422;2023-04-15T06:40:25;101272.63;;;9.01;76.89
71964;BME280;59834;52.124;5.422;2023-04-15T06:42:52;101268.41;;;9.16;76.54
71964;BME280;59834;52.124;5.422;2023-04-15T06:45:18;101289.06;;;8.86;76.15
71964;BME280;59834;52.124;5.422;2023-04-15T06:47:45;101286.94;;;8.20;78.00
71964;BME280;59834;52.124;5.422;2023-04-15T06:50:12;101288.97;;;7.94;79.12
71964;BME280;59834;52.124;5.422;2023-04-15T06:52:39;101295.81;;;7.78;80.72
71964;BME280;59834;52.124;5.422;2023-04-15T06:55:06;101296.91;;;7.72;81.63
71964;BME280;59834;52.124;5.422;2023-04-15T06:57:33;101303.31;;;7.84;80.83
71964;BME280;59834;52.124;5.422;2023-04-15T07:00:00;101307.56;;;7.87;80.89
71964;BME280;59834;52.124;5.422;2023-04-15T07:02:27;101312.56;;;7.91;82.49
71964;BME280;59834;52.124;5.422;2023-04-15T07:04:54;101314.97;;;8.15;81.52
71964;BME280;59834;52.124;5.422;2023-04-15T07:07:20;101320.56;;;8.26;80.93
71964;BME280;59834;52.124;5.422;2023-04-15T07:09:47;101318.88;;;8.25;80.61
71964;BME280;59834;52.124;5.422;2023-04-15T07:12:14;101322.25;;;8.27;80.56
71964;BME280;59834;52.124;5.422;2023-04-15T07:14:40;101329.69;;;8.35;80.69
71964;BME280;59834;52.124;5.422;2023-04-15T07:17:08;101333.75;;;8.23;80.76
71964;BME280;59834;52.124;5.422;2023-04-15T07:19:35;101336.06;;;8.29;81.41
71964;BME280;59834;52.124;5.422;2023-04-15T07:22:03;101344.97;;;8.25;80.35
71964;BME280;59834;52.124;5.422;2023-04-15T07:24:29;101349.88;;;8.31;80.35
71964;BME280;59834;52.124;5.422;2023-04-15T07:26:56;101350.56;;;8.35;80.04
71964;BME280;59834;52.124;5.422;2023-04-15T07:29:26;101354.56;;;8.43;79.97
71964;BME280;59834;52.124;5.422;2023-04-15T07:31:52;101355.81;;;8.54;79.25
71964;BME280;59834;52.124;5.422;2023-04-15T07:34:19;101353.63;;;8.63;79.33
71964;BME280;59834;52.124;5.422;2023-04-15T07:36:46;101357.41;;;8.75;79.71
71964;BME280;59834;52.124;5.422;2023-04-15T07:39:16;101358.22;;;8.94;79.27
71964;BME280;59834;52.124;5.422;2023-04-15T07:41:44;101358.25;;;9.12;78.07
71964;BME280;59834;52.124;5.422;2023-04-15T07:44:10;101364.34;;;9.12;78.20
71964;BME280;59834;52.124;5.422;2023-04-15T07:46:37;101362.28;;;9.19;76.31
71964;BME280;59834;52.124;5.422;2023-04-15T07:49:04;101369.13;;;9.39;74.95
71964;BME280;59834;52.124;5.422;2023-04-15T07:51:31;101372.63;;;9.55;74.22
71964;BME280;59834;52.124;5.422;2023-04-15T07:53:57;101375.03;;;9.60;73.43
71964;BME280;59834;52.124;5.422;2023-04-15T07:56:24;101369.81;;;9.60;72.38
71964;BME280;59834;52.124;5.422;2023-04-15T07:58:52;101382.53;;;9.49;72.41
71964;BME280;59834;52.124;5.422;2023-04-15T08:01:19;101375.63;;;9.48;71.94
71964;BME280;59834;52.124;5.422;2023-04-15T08:03:46;101386.63;;;9.54;72.30
71964;BME280;59834;52.124;5.422;2023-04-15T08:06:13;101384.66;;;9.59;72.93
71964;BME280;59834;52.124;5.422;2023-04-15T08:08:40;101393.63;;;9.54;71.82
71964;BME280;59834;52.124;5.422;2023-04-15T08:11:07;101388.78;;;9.63;72.32
71964;BME280;59834;52.124;5.422;2023-04-15T08:13:34;101394.25;;;9.76;71.62
71964;BME280;59834;52.124;5.422;2023-04-15T08:18:43;101396.22;;;9.88;70.47
71964;BME280;59834;52.124;5.422;2023-04-15T08:21:10;101405.44;;;9.78;71.37
71964;BME280;59834;52.124;5.422;2023-04-15T08:23:37;101400.53;;;9.89;70.73
71964;BME280;59834;52.124;5.422;2023-04-15T08:26:04;101405.72;;;10.07;69.74
71964;BME280;59834;52.124;5.422;2023-04-15T08:28:30;101412.56;;;9.92;68.77
71964;BME280;59834;52.124;5.422;2023-04-15T08:30:57;101408.69;;;9.83;68.72
71964;BME280;59834;52.124;5.422;2023-04-15T08:33:24;101416.22;;;9.89;67.96
71964;BME280;59834;52.124;5.422;2023-04-15T08:35:50;101420.50;;;9.90;69.18
71964;BME280;59834;52.124;5.422;2023-04-15T08:38:18;101416.06;;;9.93;68.58
71964;BME280;59834;52.124;5.422;2023-04-15T08:40:45;101417.56;;;10.14;68.55
71964;BME280;59834;52.124;5.422;2023-04-15T08:43:18;101422.56;;;10.01;67.89
71964;BME280;59834;52.124;5.422;2023-04-15T08:45:47;101434.56;;;10.05;68.75
71964;BME280;59834;52.124;5.422;2023-04-15T08:48:15;101439.94;;;10.02;67.90
71964;BME280;59834;52.124;5.422;2023-04-15T08:50:42;101440.34;;;9.95;68.03
71964;BME280;59834;52.124;5.422;2023-04-15T08:53:10;101445.41;;;10.15;68.25
71964;BME280;59834;52.124;5.422;2023-04-15T08:55:41;101453.34;;;10.13;68.59
71964;BME280;59834;52.124;5.422;2023-04-15T08:58:11;101454.59;;;10.06;68.45
71964;BME280;59834;52.124;5.422;2023-04-15T09:00:39;101466.31;;;10.15;68.66
71964;BME280;59834;52.124;5.422;2023-04-15T09:03:06;101460.50;;;10.27;69.13
71964;BME280;59834;52.124;5.422;2023-04-15T09:05:35;101460.78;;;10.38;68.11
71964;BME280;59834;52.124;5.422;2023-04-15T09:08:02;101468.22;;;10.46;67.92
71964;BME280;59834;52.124;5.422;2023-04-15T09:10:29;101465.03;;;10.57;68.28
71964;BME280;59834;52.124;5.422;2023-04-15T09:12:56;101474.66;;;10.72;67.73
71964;BME280;59834;52.124;5.422;2023-04-15T09:15:26;101474.44;;;10.93;67.51
71964;BME280;59834;52.124;5.422;2023-04-15T09:17:55;101477.16;;;10.91;67.78
71964;BME280;59834;52.124;5.422;2023-04-15T09:20:22;101476.22;;;10.92;67.29
71964;BME280;59834;52.124;5.422;2023-04-15T09:22:50;101488.72;;;10.87;66.65
71964;BME280;59834;52.124;5.422;2023-04-15T09:27:51;101495.22;;;10.96;67.10
71964;BME280;59834;52.124;5.422;2023-04-15T09:30:18;101501.72;;;10.89;67.02
71964;BME280;59834;52.124;5.422;2023-04-15T09:32:53;101510.03;;;10.97;67.16
71964;BME280;59834;52.124;5.422;2023-04-15T09:35:21;101501.06;;;11.01;66.44
71964;BME280;59834;52.124;5.422;2023-04-15T09:37:49;101500.63;;;10.93;66.57
71964;BME280;59834;52.124;5.422;2023-04-15T09:40:34;101500.78;;;10.90;68.19
71964;BME280;59834;52.124;5.422;2023-04-15T09:43:03;101510.28;;;11.08;67.03
71964;BME280;59834;52.124;5.422;2023-04-15T09:45:31;101508.75;;;11.20;66.05
71964;BME280;59834;52.124;5.422;2023-04-15T09:48:13;101499.97;;;11.05;66.81
71964;BME280;59834;52.124;5.422;2023-04-15T09:50:41;101506.56;;;11.12;67.99
71964;BME280;59834;52.124;5.422;2023-04-15T09:53:09;101509.41;;;11.39;67.04
71964;BME280;59834;52.124;5.422;2023-04-15T09:55:37;101500.38;;;11.45;65.82
71964;BME280;59834;52.124;5.422;2023-04-15T09:58:31;101505.84;;;11.56;65.50
71964;BME280;59834;52.124;5.422;2023-04-15T10:00:59;101508.00;;;11.33;65.36
71964;BME280;59834;52.124;5.422;2023-04-15T10:03:29;101511.03;;;11.42;64.37
71964;BME280;59834;52.124;5.422;2023-04-15T10:05:59;101524.97;;;11.58;65.36
71964;BME280;59834;52.124;5.422;2023-04-15T10:08:27;101523.84;;;11.62;64.95
71964;BME280;59834;52.124;5.422;2023-04-15T10:10:54;101521.88;;;11.82;64.61
71964;BME280;59834;52.124;5.422;2023-04-15T10:13:25;101528.50;;;12.03;64.85
71964;BME280;59834;52.124;5.422;2023-04-15T10:16:04;101527.97;;;12.12;63.88
71964;BME280;59834;52.124;5.422;2023-04-15T10:18:34;101530.59;;;12.12;62.47
71964;BME280;59834;52.124;5.422;2023-04-15T10:21:01;101534.03;;;11.83;62.98
71964;BME280;59834;52.124;5.422;2023-04-15T10:23:28;101521.38;;;11.91;62.85
71964;BME280;59834;52.124;5.422;2023-04-15T10:25:54;101532.63;;;11.77;63.87
71964;BME280;59834;52.124;5.422;2023-04-15T10:28:23;101530.34;;;11.87;64.16
71964;BME280;59834;52.124;5.422;2023-04-15T10:30:51;101531.47;;;11.97;63.71
71964;BME280;59834;52.124;5.422;2023-04-15T10:33:22;101531.94;;;12.34;63.26
71964;BME280;59834;52.124;5.422;2023-04-15T10:35:50;101531.28;;;12.30;63.15
71964;BME280;59834;52.124;5.422;2023-04-15T10:41:21;101543.41;;;12.47;63.02
71964;BME280;59834;52.124;5.422;2023-04-15T10:43:49;101545.81;;;12.36;63.65
71964;BME280;59834;52.124;5.422;2023-04-15T10:46:36;101537.94;;;12.36;63.28
71964;BME280;59834;52.124;5.422;2023-04-15T10:51:33;101552.56;;;12.40;63.02
71964;BME280;59834;52.124;5.422;2023-04-15T10:54:08;101554.88;;;12.16;61.64
71964;BME280;59834;52.124;5.422;2023-04-15T10:56:35;101559.00;;;12.20;61.57
71964;BME280;59834;52.124;5.422;2023-04-15T10:59:04;101550.72;;;12.27;61.71
71964;BME280;59834;52.124;5.422;2023-04-15T11:01:53;101568.91;;;12.45;62.59
71964;BME280;59834;52.124;5.422;2023-04-15T11:07:40;101565.50;;;12.29;61.84
71964;BME280;59834;52.124;5.422;2023-04-15T11:12:40;101565.28;;;12.62;60.08
71964;BME280;59834;52.124;5.422;2023-04-15T11:15:27;101573.88;;;12.64;60.95
71964;BME280;59834;52.124;5.422;2023-04-15T11:17:57;101572.69;;;12.84;60.13
71964;BME280;59834;52.124;5.422;2023-04-15T11:20:24;101568.19;;;12.71;59.68
71964;BME280;59834;52.124;5.422;2023-04-15T11:22:52;101574.53;;;12.67;60.28
71964;BME280;59834;52.124;5.422;2023-04-15T11:25:40;101569.50;;;12.64;60.02
71964;BME280;59834;52.124;5.422;2023-04-15T11:28:07;101576.84;;;12.88;59.69
71964;BME280;59834;52.124;5.422;2023-04-15T11:30:35;101566.31;;;13.02;58.62
71964;BME280;59834;52.124;5.422;2023-04-15T11:33:07;101581.59;;;13.10;59.00
71964;BME280;59834;52.124;5.422;2023-04-15T11:35:34;101568.94;;;13.02;59.74
71964;BME280;59834;52.124;5.422;2023-04-15T11:38:07;101573.63;;;13.26;60.17
71964;BME280;59834;52.124;5.422;2023-04-15T11:40:34;101572.31;;;13.18;60.08
71964;BME280;59834;52.124;5.422;2023-04-15T11:43:08;101579.41;;;13.16;59.80
71964;BME280;59834;52.124;5.422;2023-04-15T11:45:36;101585.53;;;13.03;60.93
71964;BME280;59834;52.124;5.422;2023-04-15T11:48:10;101583.72;;;13.17;59.48
71964;BME280;59834;52.124;5.422;2023-04-15T11:50:37;101576.72;;;13.32;58.65
71964;BME280;59834;52.124;5.422;2023-04-15T11:53:08;101590.34;;;13.25;59.08
71964;BME280;59834;52.124;5.422;2023-04-15T11:55:43;101588.25;;;13.15;59.69
71964;BME280;59834;52.124;5.422;2023-04-15T11:58:22;101588.78;;;13.20;60.15
71964;BME280;59834;52.124;5.422;2023-04-15T12:00:53;101587.84;;;13.50;58.92
71964;BME280;59834;52.124;5.422;2023-04-15T12:03:24;101600.66;;;13.28;58.08
71964;BME280;59834;52.124;5.422;2023-04-15T12:06:22;101604.22;;;13.12;59.56
71964;BME280;59834;52.124;5.422;2023-04-15T12:09:03;101599.69;;;13.14;59.65
71964;BME280;59834;52.124;5.422;2023-04-15T12:11:46;101611.38;;;13.25;60.25
71964;BME280;59834;52.124;5.422;2023-04-15T12:14:30;101609.44;;;13.41;58.29
71964;BME280;59834;52.124;5.422;2023-04-15T12:16:59;101617.81;;;12.90;59.65
71964;BME280;59834;52.124;5.422;2023-04-15T12:21:59;101621.84;;;13.53;58.38
71964;BME280;59834;52.124;5.422;2023-04-15T12:24:27;101621.69;;;13.28;58.26
71964;BME280;59834;52.124;5.422;2023-04-15T12:26:56;101630.13;;;13.33;58.55
71964;BME280;59834;52.124;5.422;2023-04-15T12:29:28;101631.34;;;13.13;57.21
71964;BME280;59834;52.124;5.422;2023-04-15T12:32:12;101634.53;;;12.89;58.67
71964;BME280;59834;52.124;5.422;2023-04-15T12:34:46;101634.81;;;12.85;60.95
71964;BME280;59834;52.124;5.422;2023-04-15T12:37:14;101642.97;;;12.80;61.29
71964;BME280;59834;52.124;5.422;2023-04-15T12:39:43;101643.66;;;12.98;60.20
71964;BME280;59834;52.124;5.422;2023-04-15T12:42:10;101650.41;;;13.02;60.44
71964;BME280;59834;52.124;5.422;2023-04-15T12:44:38;101654.41;;;12.93;60.78
71964;BME280;59834;52.124;5.422;2023-04-15T12:47:06;101645.88;;;13.04;60.74
71964;BME280;59834;52.124;5.422;2023-04-15T12:49:33;101672.16;;;12.90;61.15
71964;BME280;59834;52.124;5.422;2023-04-15T12:52:01;101653.94;;;12.87;60.84
71964;BME280;59834;52.124;5.422;2023-04-15T12:54:28;101661.19;;;13.12;60.55
71964;BME280;59834;52.124;5.422;2023-04-15T12:56:56;101672.38;;;13.01;59.95
71964;BME280;59834;52.124;5.422;2023-04-15T12:59:23;101674.97;;;12.87;61.02
71964;BME280;59834;52.124;5.422;2023-04-15T13:01:50;101680.09;;;12.74;60.91
71964;BME280;59834;52.124;5.422;2023-04-15T13:04:19;101681.72;;;12.91;60.30
71964;BME280;59834;52.124;5.422;2023-04-15T13:06:47;101667.19;;;13.00;59.86
71964;BME280;59834;52.124;5.422;2023-04-15T13:09:14;101682.66;;;12.90;60.48
71964;BME280;59834;52.124;5.422;2023-04-15T13:11:41;101687.38;;;12.85;61.20
71964;BME280;59834;52.124;5.422;2023-04-15T13:14:09;101694.16;;;12.73;62.25
71964;BME280;59834;52.124;5.422;2023-04-15T13:16:39;101699.69;;;12.54;62.35
71964;BME280;59834;52.124;5.422;2023-04-15T13:19:06;101700.50;;;12.55;62.91
71964;BME280;59834;52.124;5.422;2023-04-15T13:21:32;101693.72;;;12.50;63.77